sensor_id;sensor_type;location;lat;lon;timestamp;pressure;altitude;pressure_sealevel;temperature;humidity
55517;BME280;41724;51.176;-0.708;2023-03-22T00:00:38;100030.12;;;9.53;81.11
55517;BME280;41724;51.176;-0.708;2023-03-22T00:03:05;100034.45;;;9.45;80.48
55517;BME280;41724;51.176;-0.708;2023-03-22T00:05:32;100021.36;;;9.97;78.59
55517;BME280;41724;51.176;-0.708;2023-03-22T00:07:59;100013.01;;;9.67;80.27
55517;BME280;41724;51.176;-0.708;2023-03-22T00:10:27;100017.46;;;10.15;78.20
55517;BME280;41724;51.176;-0.708;2023-03-22T00:12:54;100014.51;;;9.31;82.56
55517;BME280;41724;51.176;-0.708;2023-03-22T00:15:21;100009.88;;;10.23;79.24
55517;BME280;41724;51.176;-0.708;2023-03-22T00:17:48;99991.22;;;10.26;79.93
55517;BME280;41724;51.176;-0.708;2023-03-22T00:20:16;99992.32;;;10.18;79.27
55517;BME280;41724;51.176;-0.708;2023-03-22T00:22:43;99980.94;;;9.91;79.77
55517;BME280;41724;51.176;-0.708;2023-03-22T00:25:10;99982.66;;;9.78;80.83
55517;BME280;41724;51.176;-0.708;2023-03-22T00:27:37;99972.04;;;9.30;83.06
55517;BME280;41724;51.176;-0.708;2023-03-22T00:30:05;99961.73;;;9.51;81.99
55517;BME280;41724;51.176;-0.708;2023-03-22T00:32:34;99962.10;;;10.69;77.80
55517;BME280;41724;51.176;-0.708;2023-03-22T00:35:01;99965.56;;;10.12;80.00
55517;BME280;41724;51.176;-0.708;2023-03-22T00:37:28;99953.91;;;9.94;79.90
55517;BME280;41724;51.176;-0.708;2023-03-22T00:39:55;99945.01;;;9.31;82.06
55517;BME280;41724;51.176;-0.708;2023-03-22T00:42:22;99933.76;;;9.26;83.43
55517;BME280;41724;51.176;-0.708;2023-03-22T00:44:49;99934.55;;;9.47;82.44
55517;BME280;41724;51.176;-0.708;2023-03-22T00:47:16;99936.08;;;9.85;80.00
55517;BME280;41724;51.176;-0.708;2023-03-22T00:49:43;99926.89;;;10.08;80.80
55517;BME280;41724;51.176;-0.708;2023-03-22T00:52:10;99918.62;;;10.25;80.26
55517;BME280;41724;51.176;-0.708;2023-03-22T00:54:37;99918.64;;;9.89;81.70
55517;BME280;41724;51.176;-0.708;2023-03-22T00:57:04;99898.08;;;9.50;83.69
55517;BME280;41724;51.176;-0.708;2023-03-22T00:59:31;99896.83;;;9.51;86.17
55517;BME280;41724;51.176;-0.708;2023-03-22T01:01:59;99901.68;;;9.97;84.12
55517;BME280;41724;51.176;-0.708;2023-03-22T01:04:26;99893.28;;;9.15;88.82
55517;BME280;41724;51.176;-0.708;2023-03-22T01:06:53;99880.91;;;9.10;88.52
55517;BME280;41724;51.176;-0.708;2023-03-22T01:09:20;99877.54;;;8.88;90.30
55517;BME280;41724;51.176;-0.708;2023-03-22T01:11:47;99882.34;;;8.57;90.81
55517;BME280;41724;51.176;-0.708;2023-03-22T01:14:14;99875.64;;;9.40;87.97
55517;BME280;41724;51.176;-0.708;2023-03-22T01:16:41;99880.78;;;9.63;85.67
55517;BME280;41724;51.176;-0.708;2023-03-22T01:19:09;99872.91;;;9.15;88.08
55517;BME280;41724;51.176;-0.708;2023-03-22T01:21:36;99893.19;;;8.32;92.60
55517;BME280;41724;51.176;-0.708;2023-03-22T01:24:03;99883.58;;;8.22;94.01
55517;BME280;41724;51.176;-0.708;2023-03-22T01:26:31;99871.38;;;8.71;91.61
55517;BME280;41724;51.176;-0.708;2023-03-22T01:28:58;99864.27;;;8.50;92.19
55517;BME280;41724;51.176;-0.708;2023-03-22T01:31:24;99862.75;;;8.33;92.07
55517;BME280;41724;51.176;-0.708;2023-03-22T01:33:51;99865.29;;;8.97;89.39
55517;BME280;41724;51.176;-0.708;2023-03-22T01:36:18;99841.29;;;8.48;90.47
55517;BME280;41724;51.176;-0.708;2023-03-22T01:38:45;99834.44;;;8.15;92.97
55517;BME280;41724;51.176;-0.708;2023-03-22T01:41:13;99835.44;;;8.75;90.67
55517;BME280;41724;51.176;-0.708;2023-03-22T01:43:41;99831.80;;;8.56;94.29
55517;BME280;41724;51.176;-0.708;2023-03-22T01:46:08;99835.82;;;8.66;93.71
55517;BME280;41724;51.176;-0.708;2023-03-22T01:48:37;99835.24;;;8.13;95.21
55517;BME280;41724;51.176;-0.708;2023-03-22T01:51:07;99828.42;;;9.24;90.82
55517;BME280;41724;51.176;-0.708;2023-03-22T01:53:40;99832.05;;;9.08;91.17
55517;BME280;41724;51.176;-0.708;2023-03-22T01:56:09;99803.24;;;8.05;97.51
55517;BME280;41724;51.176;-0.708;2023-03-22T01:58:38;99806.15;;;8.81;95.08
55517;BME280;41724;51.176;-0.708;2023-03-22T02:01:08;99815.63;;;8.60;94.83
55517;BME280;41724;51.176;-0.708;2023-03-22T02:03:43;99815.46;;;7.76;99.31
55517;BME280;41724;51.176;-0.708;2023-03-22T02:06:13;99797.85;;;8.39;98.18
55517;BME280;41724;51.176;-0.708;2023-03-22T02:08:40;99811.46;;;7.94;93.81
55517;BME280;41724;51.176;-0.708;2023-03-22T02:11:12;99792.59;;;8.11;94.94
55517;BME280;41724;51.176;-0.708;2023-03-22T02:13:53;99791.14;;;8.61;91.53
55517;BME280;41724;51.176;-0.708;2023-03-22T02:16:34;99771.54;;;8.72;91.50
55517;BME280;41724;51.176;-0.708;2023-03-22T02:19:30;99771.94;;;8.08;93.33
55517;BME280;41724;51.176;-0.708;2023-03-22T02:24:47;99762.93;;;8.14;97.29
55517;BME280;41724;51.176;-0.708;2023-03-22T02:27:32;99757.73;;;7.67;98.82
55517;BME280;41724;51.176;-0.708;2023-03-22T02:30:21;99760.05;;;7.83;98.75
55517;BME280;41724;51.176;-0.708;2023-03-22T02:33:05;99756.24;;;7.75;100.00
55517;BME280;41724;51.176;-0.708;2023-03-22T02:35:52;99751.81;;;7.58;98.48
55517;BME280;41724;51.176;-0.708;2023-03-22T02:38:46;99738.91;;;7.77;100.00
55517;BME280;41724;51.176;-0.708;2023-03-22T02:41:22;99736.20;;;7.70;100.00
55517;BME280;41724;51.176;-0.708;2023-03-22T02:44:01;99740.37;;;7.84;100.00
55517;BME280;41724;51.176;-0.708;2023-03-22T02:46:36;99742.58;;;7.63;100.00
55517;BME280;41724;51.176;-0.708;2023-03-22T02:49:15;99734.14;;;7.49;100.00
55517;BME280;41724;51.176;-0.708;2023-03-22T02:51:47;99732.08;;;7.80;100.00
55517;BME280;41724;51.176;-0.708;2023-03-22T02:54:20;99724.79;;;7.92;100.00
55517;BME280;41724;51.176;-0.708;2023-03-22T02:56:53;99727.22;;;8.44;98.25
55517;BME280;41724;51.176;-0.708;2023-03-22T02:59:22;99714.34;;;7.52;100.00
55517;BME280;41724;51.176;-0.708;2023-03-22T03:01:53;99715.77;;;7.48;100.00
55517;BME280;41724;51.176;-0.708;2023-03-22T03:04:27;99711.36;;;7.21;100.00
55517;BME280;41724;51.176;-0.708;2023-03-22T03:06:57;99703.05;;;7.32;100.00
55517;BME280;41724;51.176;-0.708;2023-03-22T03:09:27;99704.33;;;7.59;100.00
55517;BME280;41724;51.176;-0.708;2023-03-22T03:11:55;99706.12;;;7.66;100.00
55517;BME280;41724;51.176;-0.708;2023-03-22T03:14:24;99701.91;;;7.34;100.00
55517;BME280;41724;51.176;-0.708;2023-03-22T03:17:08;99705.54;;;7.72;100.00
55517;BME280;41724;51.176;-0.708;2023-03-22T03:19:42;99707.02;;;7.75;100.00
55517;BME280;41724;51.176;-0.708;2023-03-22T03:22:24;99704.49;;;7.71;100.00
55517;BME280;41724;51.176;-0.708;2023-03-22T03:25:01;99695.87;;;7.86;100.00
55517;BME280;41724;51.176;-0.708;2023-03-22T03:27:36;99686.03;;;7.88;100.00
55517;BME280;41724;51.176;-0.708;2023-03-22T03:30:12;99689.50;;;7.93;100.00
55517;BME280;41724;51.176;-0.708;2023-03-22T03:32:45;99690.07;;;8.00;100.00
55517;BME280;41724;51.176;-0.708;2023-03-22T03:35:20;99682.82;;;7.51;100.00
55517;BME280;41724;51.176;-0.708;2023-03-22T03:37:50;99693.92;;;7.55;100.00
55517;BME280;41724;51.176;-0.708;2023-03-22T03:40:22;99678.80;;;7.66;100.00
55517;BME280;41724;51.176;-0.708;2023-03-22T03:42:54;99676.05;;;7.14;100.00
55517;BME280;41724;51.176;-0.708;2023-03-22T03:45:22;99674.42;;;7.36;100.00
55517;BME280;41724;51.176;-0.708;2023-03-22T03:47:52;99674.03;;;7.85;100.00
55517;BME280;41724;51.176;-0.708;2023-03-22T03:50:24;99678.26;;;7.68;100.00
55517;BME280;41724;51.176;-0.708;2023-03-22T03:52:52;99663.21;;;7.79;100.00
55517;BME280;41724;51.176;-0.708;2023-03-22T03:55:20;99677.09;;;7.99;100.00
55517;BME280;41724;51.176;-0.708;2023-03-22T03:57:48;99665.38;;;8.02;100.00
55517;BME280;41724;51.176;-0.708;2023-03-22T04:00:17;99665.91;;;8.09;100.00
55517;BME280;41724;51.176;-0.708;2023-03-22T04:02:44;99662.95;;;8.31;100.00
55517;BME280;41724;51.176;-0.708;2023-03-22T04:05:12;99652.21;;;8.14;100.00
55517;BME280;41724;51.176;-0.708;2023-03-22T04:07:40;99666.70;;;7.76;100.00
55517;BME280;41724;51.176;-0.708;2023-03-22T04:10:08;99657.66;;;8.07;100.00
55517;BME280;41724;51.176;-0.708;2023-03-22T04:12:36;99658.12;;;7.77;100.00
55517;BME280;41724;51.176;-0.708;2023-03-22T04:15:03;99660.45;;;8.16;100.00
55517;BME280;41724;51.176;-0.708;2023-03-22T04:17:31;99654.56;;;7.74;100.00
55517;BME280;41724;51.176;-0.708;2023-03-22T04:19:58;99654.87;;;7.53;100.00
55517;BME280;41724;51.176;-0.708;2023-03-22T04:22:25;99653.25;;;7.40;100.00
55517;BME280;41724;51.176;-0.708;2023-03-22T04:24:53;99650.62;;;7.50;100.00
55517;BME280;41724;51.176;-0.708;2023-03-22T04:27:21;99652.02;;;7.32;100.00
55517;BME280;41724;51.176;-0.708;2023-03-22T04:29:48;99652.54;;;7.23;100.00
55517;BME280;41724;51.176;-0.708;2023-03-22T04:32:16;99650.24;;;7.24;100.00
55517;BME280;41724;51.176;-0.708;2023-03-22T04:34:44;99644.11;;;7.49;100.00
55517;BME280;41724;51.176;-0.708;2023-03-22T04:37:11;99647.41;;;7.26;100.00
55517;BME280;41724;51.176;-0.708;2023-03-22T04:39:40;99637.46;;;7.64;100.00
55517;BME280;41724;51.176;-0.708;2023-03-22T04:42:07;99644.59;;;7.60;100.00
55517;BME280;41724;51.176;-0.708;2023-03-22T04:44:34;99641.55;;;7.16;100.00
55517;BME280;41724;51.176;-0.708;2023-03-22T04:47:02;99652.01;;;7.41;100.00
55517;BME280;41724;51.176;-0.708;2023-03-22T04:49:29;99658.47;;;7.29;100.00
55517;BME280;41724;51.176;-0.708;2023-03-22T04:51:57;99641.61;;;7.11;100.00
55517;BME280;41724;51.176;-0.708;2023-03-22T04:54:24;99655.00;;;7.70;100.00
55517;BME280;41724;51.176;-0.708;2023-03-22T04:56:50;99648.25;;;7.44;100.00
55517;BME280;41724;51.176;-0.708;2023-03-22T04:59:18;99649.10;;;7.67;100.00
55517;BME280;41724;51.176;-0.708;2023-03-22T05:01:45;99649.62;;;7.21;100.00
55517;BME280;41724;51.176;-0.708;2023-03-22T05:04:12;99642.63;;;7.61;100.00
55517;BME280;41724;51.176;-0.708;2023-03-22T05:06:39;99654.45;;;7.40;100.00
55517;BME280;41724;51.176;-0.708;2023-03-22T05:09:06;99645.56;;;8.20;100.00
55517;BME280;41724;51.176;-0.708;2023-03-22T05:11:34;99640.76;;;7.61;100.00
55517;BME280;41724;51.176;-0.708;2023-03-22T05:14:01;99643.61;;;7.31;100.00
55517;BME280;41724;51.176;-0.708;2023-03-22T05:16:28;99653.78;;;7.73;100.00
55517;BME280;41724;51.176;-0.708;2023-03-22T05:18:55;99648.25;;;7.77;100.00
55517;BME280;41724;51.176;-0.708;2023-03-22T05:21:24;99638.42;;;7.68;100.00
55517;BME280;41724;51.176;-0.708;2023-03-22T05:23:51;99641.85;;;7.79;100.00
55517;BME280;41724;51.176;-0.708;2023-03-22T05:26:19;99645.49;;;7.96;100.00
55517;BME280;41724;51.176;-0.708;2023-03-22T05:28:46;99649.03;;;7.47;100.00
55517;BME280;41724;51.176;-0.708;2023-03-22T05:31:13;99645.02;;;7.79;100.00
55517;BME280;41724;51.176;-0.708;2023-03-22T05:33:40;99642.84;;;7.65;100.00
55517;BME280;41724;51.176;-0.708;2023-03-22T05:36:08;99648.61;;;7.21;100.00
55517;BME280;41724;51.176;-0.708;2023-03-22T05:38:36;99637.82;;;6.67;100.00
55517;BME280;41724;51.176;-0.708;2023-03-22T05:41:03;99647.31;;;7.24;100.00
55517;BME280;41724;51.176;-0.708;2023-03-22T05:43:30;99642.75;;;7.24;100.00
55517;BME280;41724;51.176;-0.708;2023-03-22T05:45:57;99640.66;;;8.05;100.00
55517;BME280;41724;51.176;-0.708;2023-03-22T05:48:24;99650.55;;;7.61;100.00
55517;BME280;41724;51.176;-0.708;2023-03-22T05:50:51;99647.36;;;7.89;100.00
55517;BME280;41724;51.176;-0.708;2023-03-22T05:53:18;99655.15;;;7.52;100.00
55517;BME280;41724;51.176;-0.708;2023-03-22T05:55:45;99648.54;;;8.15;100.00
55517;BME280;41724;51.176;-0.708;2023-03-22T05:58:13;99655.48;;;7.72;100.00
55517;BME280;41724;51.176;-0.708;2023-03-22T06:00:40;99652.44;;;7.42;100.00
55517;BME280;41724;51.176;-0.708;2023-03-22T06:03:07;99649.30;;;8.15;100.00
55517;BME280;41724;51.176;-0.708;2023-03-22T06:05:34;99641.19;;;7.64;100.00
55517;BME280;41724;51.176;-0.708;2023-03-22T06:08:01;99644.52;;;7.16;100.00
55517;BME280;41724;51.176;-0.708;2023-03-22T06:10:29;99648.59;;;7.67;100.00
55517;BME280;41724;51.176;-0.708;2023-03-22T06:12:56;99641.55;;;7.51;100.00
55517;BME280;41724;51.176;-0.708;2023-03-22T06:15:23;99642.68;;;7.44;100.00
55517;BME280;41724;51.176;-0.708;2023-03-22T06:17:50;99645.22;;;7.49;100.00
55517;BME280;41724;51.176;-0.708;2023-03-22T06:20:17;99636.41;;;7.14;100.00
55517;BME280;41724;51.176;-0.708;2023-03-22T06:22:44;99637.85;;;8.13;100.00
55517;BME280;41724;51.176;-0.708;2023-03-22T06:25:12;99632.69;;;7.90;100.00
55517;BME280;41724;51.176;-0.708;2023-03-22T06:27:38;99626.94;;;7.71;100.00
55517;BME280;41724;51.176;-0.708;2023-03-22T06:30:07;99629.78;;;7.80;100.00
55517;BME280;41724;51.176;-0.708;2023-03-22T06:32:34;99622.26;;;7.61;100.00
55517;BME280;41724;51.176;-0.708;2023-03-22T06:35:01;99619.19;;;7.24;100.00
55517;BME280;41724;51.176;-0.708;2023-03-22T06:37:28;99593.81;;;7.90;100.00
55517;BME280;41724;51.176;-0.708;2023-03-22T06:39:55;99607.14;;;8.42;100.00
55517;BME280;41724;51.176;-0.708;2023-03-22T06:42:22;99611.80;;;8.73;100.00
55517;BME280;41724;51.176;-0.708;2023-03-22T06:44:49;99610.05;;;8.37;100.00
55517;BME280;41724;51.176;-0.708;2023-03-22T06:47:16;99599.62;;;7.78;100.00
55517;BME280;41724;51.176;-0.708;2023-03-22T06:49:43;99579.81;;;7.97;100.00
55517;BME280;41724;51.176;-0.708;2023-03-22T06:52:10;99592.49;;;8.58;100.00
55517;BME280;41724;51.176;-0.708;2023-03-22T06:54:38;99594.74;;;8.74;100.00
55517;BME280;41724;51.176;-0.708;2023-03-22T06:57:04;99600.60;;;8.24;100.00
55517;BME280;41724;51.176;-0.708;2023-03-22T06:59:32;99601.24;;;7.87;100.00
55517;BME280;41724;51.176;-0.708;2023-03-22T07:01:59;99597.59;;;8.26;100.00
55517;BME280;41724;51.176;-0.708;2023-03-22T07:04:26;99619.04;;;8.06;100.00
55517;BME280;41724;51.176;-0.708;2023-03-22T07:06:53;99619.37;;;8.60;100.00
55517;BME280;41724;51.176;-0.708;2023-03-22T07:09:20;99633.08;;;8.71;100.00
55517;BME280;41724;51.176;-0.708;2023-03-22T07:11:47;99624.49;;;8.42;100.00
55517;BME280;41724;51.176;-0.708;2023-03-22T07:14:14;99626.37;;;8.04;100.00
55517;BME280;41724;51.176;-0.708;2023-03-22T07:16:41;99626.44;;;8.23;100.00
55517;BME280;41724;51.176;-0.708;2023-03-22T07:19:08;99632.66;;;8.26;100.00
55517;BME280;41724;51.176;-0.708;2023-03-22T07:21:35;99635.47;;;8.69;100.00
55517;BME280;41724;51.176;-0.708;2023-03-22T07:24:02;99627.02;;;8.11;100.00
55517;BME280;41724;51.176;-0.708;2023-03-22T07:26:30;99632.69;;;8.31;100.00
55517;BME280;41724;51.176;-0.708;2023-03-22T07:28:57;99635.75;;;8.18;100.00
55517;BME280;41724;51.176;-0.708;2023-03-22T07:31:24;99634.73;;;8.09;100.00
55517;BME280;41724;51.176;-0.708;2023-03-22T07:33:51;99631.44;;;8.30;100.00
55517;BME280;41724;51.176;-0.708;2023-03-22T07:36:18;99634.14;;;8.24;100.00
55517;BME280;41724;51.176;-0.708;2023-03-22T07:38:45;99621.39;;;8.24;100.00
55517;BME280;41724;51.176;-0.708;2023-03-22T07:41:13;99629.63;;;7.91;100.00
55517;BME280;41724;51.176;-0.708;2023-03-22T07:43:40;99639.52;;;8.03;100.00
55517;BME280;41724;51.176;-0.708;2023-03-22T07:46:07;99638.71;;;7.86;100.00
55517;BME280;41724;51.176;-0.708;2023-03-22T07:48:34;99654.05;;;8.63;100.00
55517;BME280;41724;51.176;-0.708;2023-03-22T07:51:01;99642.91;;;8.62;100.00
55517;BME280;41724;51.176;-0.708;2023-03-22T07:53:28;99631.17;;;8.96;100.00
55517;BME280;41724;51.176;-0.708;2023-03-22T07:55:55;99632.75;;;8.48;100.00
55517;BME280;41724;51.176;-0.708;2023-03-22T07:58:21;99639.54;;;8.40;100.00
55517;BME280;41724;51.176;-0.708;2023-03-22T08:00:48;99647.90;;;8.88;100.00
55517;BME280;41724;51.176;-0.708;2023-03-22T08:03:15;99651.20;;;8.11;100.00
55517;BME280;41724;51.176;-0.708;2023-03-22T08:05:43;99662.79;;;8.22;100.00
55517;BME280;41724;51.176;-0.708;2023-03-22T08:08:10;99646.84;;;8.57;100.00
55517;BME280;41724;51.176;-0.708;2023-03-22T08:10:37;99669.48;;;8.32;100.00
55517;BME280;41724;51.176;-0.708;2023-03-22T08:13:04;99660.32;;;8.11;100.00
55517;BME280;41724;51.176;-0.708;2023-03-22T08:15:32;99650.26;;;8.41;100.00
55517;BME280;41724;51.176;-0.708;2023-03-22T08:17:59;99643.89;;;8.05;100.00
55517;BME280;41724;51.176;-0.708;2023-03-22T08:20:26;99649.54;;;8.47;100.00
55517;BME280;41724;51.176;-0.708;2023-03-22T08:22:53;99645.94;;;8.15;100.00
55517;BME280;41724;51.176;-0.708;2023-03-22T08:25:21;99645.51;;;8.42;100.00
55517;BME280;41724;51.176;-0.708;2023-03-22T08:27:48;99645.03;;;8.40;100.00
55517;BME280;41724;51.176;-0.708;2023-03-22T08:30:17;99645.37;;;8.23;100.00
55517;BME280;41724;51.176;-0.708;2023-03-22T08:32:47;99635.81;;;8.47;100.00
55517;BME280;41724;51.176;-0.708;2023-03-22T08:35:14;99638.23;;;8.09;100.00
55517;BME280;41724;51.176;-0.708;2023-03-22T08:37:41;99651.50;;;8.71;100.00
55517;BME280;41724;51.176;-0.708;2023-03-22T08:40:09;99646.90;;;8.80;100.00
55517;BME280;41724;51.176;-0.708;2023-03-22T08:42:36;99653.15;;;9.04;100.00
55517;BME280;41724;51.176;-0.708;2023-03-22T08:45:04;99666.00;;;8.56;100.00
55517;BME280;41724;51.176;-0.708;2023-03-22T08:47:31;99678.90;;;8.34;100.00
55517;BME280;41724;51.176;-0.708;2023-03-22T08:49:58;99668.66;;;8.76;100.00
55517;BME280;41724;51.176;-0.708;2023-03-22T08:52:25;99664.61;;;8.63;100.00
55517;BME280;41724;51.176;-0.708;2023-03-22T08:54:53;99665.37;;;9.68;100.00
55517;BME280;41724;51.176;-0.708;2023-03-22T08:57:19;99670.39;;;9.33;100.00
55517;BME280;41724;51.176;-0.708;2023-03-22T08:59:46;99675.44;;;9.38;100.00
55517;BME280;41724;51.176;-0.708;2023-03-22T09:02:14;99679.61;;;9.83;100.00
55517;BME280;41724;51.176;-0.708;2023-03-22T09:04:40;99684.19;;;8.66;100.00
55517;BME280;41724;51.176;-0.708;2023-03-22T09:07:08;99687.51;;;9.40;100.00
55517;BME280;41724;51.176;-0.708;2023-03-22T09:09:35;99694.99;;;8.73;100.00
55517;BME280;41724;51.176;-0.708;2023-03-22T09:12:02;99687.02;;;9.13;100.00
55517;BME280;41724;51.176;-0.708;2023-03-22T09:14:29;99687.79;;;9.01;100.00
55517;BME280;41724;51.176;-0.708;2023-03-22T09:16:56;99677.03;;;9.70;100.00
55517;BME280;41724;51.176;-0.708;2023-03-22T09:19:23;99672.87;;;10.07;100.00
55517;BME280;41724;51.176;-0.708;2023-03-22T09:21:50;99688.03;;;9.26;100.00
55517;BME280;41724;51.176;-0.708;2023-03-22T09:24:17;99676.90;;;9.60;100.00
55517;BME280;41724;51.176;-0.708;2023-03-22T09:26:45;99680.78;;;9.58;100.00
55517;BME280;41724;51.176;-0.708;2023-03-22T09:29:13;99675.13;;;9.90;100.00
55517;BME280;41724;51.176;-0.708;2023-03-22T09:31:40;99685.80;;;10.49;99.77
55517;BME280;41724;51.176;-0.708;2023-03-22T09:34:07;99681.08;;;10.53;94.47
55517;BME280;41724;51.176;-0.708;2023-03-22T09:36:34;99679.53;;;10.61;96.59
55517;BME280;41724;51.176;-0.708;2023-03-22T09:39:01;99678.12;;;9.76;99.96
55517;BME280;41724;51.176;-0.708;2023-03-22T09:41:35;99683.62;;;10.04;98.70
55517;BME280;41724;51.176;-0.708;2023-03-22T09:44:06;99689.01;;;10.39;97.49
55517;BME280;41724;51.176;-0.708;2023-03-22T09:46:37;99677.18;;;10.71;93.71
55517;BME280;41724;51.176;-0.708;2023-03-22T09:49:13;99689.31;;;10.18;95.05
55517;BME280;41724;51.176;-0.708;2023-03-22T09:51:44;99678.91;;;10.30;94.20
55517;BME280;41724;51.176;-0.708;2023-03-22T09:54:15;99672.96;;;10.33;95.33
55517;BME280;41724;51.176;-0.708;2023-03-22T09:56:45;99681.15;;;9.95;97.85
55517;BME280;41724;51.176;-0.708;2023-03-22T09:59:21;99673.97;;;9.54;97.83
55517;BME280;41724;51.176;-0.708;2023-03-22T10:01:54;99670.48;;;9.73;97.17
55517;BME280;41724;51.176;-0.708;2023-03-22T10:05:00;99656.25;;;10.09;96.33
55517;BME280;41724;51.176;-0.708;2023-03-22T10:07:36;99660.40;;;11.22;88.59
55517;BME280;41724;51.176;-0.708;2023-03-22T10:10:12;99675.00;;;10.02;92.12
55517;BME280;41724;51.176;-0.708;2023-03-22T10:12:45;99678.20;;;10.18;93.35
55517;BME280;41724;51.176;-0.708;2023-03-22T10:15:31;99667.02;;;10.60;91.95
55517;BME280;41724;51.176;-0.708;2023-03-22T10:18:04;99661.32;;;10.41;90.91
55517;BME280;41724;51.176;-0.708;2023-03-22T10:20:37;99671.17;;;9.67;90.66
55517;BME280;41724;51.176;-0.708;2023-03-22T10:23:11;99679.91;;;9.86;92.77
55517;BME280;41724;51.176;-0.708;2023-03-22T10:25:41;99681.62;;;9.71;94.25
55517;BME280;41724;51.176;-0.708;2023-03-22T10:28:15;99689.59;;;9.11;95.79
55517;BME280;41724;51.176;-0.708;2023-03-22T10:30:49;99684.67;;;9.92;93.66
55517;BME280;41724;51.176;-0.708;2023-03-22T10:33:26;99682.52;;;9.37;94.15
55517;BME280;41724;51.176;-0.708;2023-03-22T10:35:55;99676.00;;;10.22;92.00
55517;BME280;41724;51.176;-0.708;2023-03-22T10:38:26;99671.23;;;10.08;93.13
55517;BME280;41724;51.176;-0.708;2023-03-22T10:40:57;99669.39;;;10.62;92.54
55517;BME280;41724;51.176;-0.708;2023-03-22T10:43:30;99666.34;;;10.94;90.43
55517;BME280;41724;51.176;-0.708;2023-03-22T10:46:00;99661.01;;;10.83;95.09
55517;BME280;41724;51.176;-0.708;2023-03-22T10:48:31;99669.51;;;11.44;91.16
55517;BME280;41724;51.176;-0.708;2023-03-22T10:51:00;99664.02;;;11.32;91.26
55517;BME280;41724;51.176;-0.708;2023-03-22T10:53:33;99663.67;;;12.28;83.31
55517;BME280;41724;51.176;-0.708;2023-03-22T10:56:03;99670.51;;;11.42;89.95
55517;BME280;41724;51.176;-0.708;2023-03-22T10:58:32;99653.00;;;11.68;89.92
55517;BME280;41724;51.176;-0.708;2023-03-22T11:01:06;99670.08;;;10.95;89.05
55517;BME280;41724;51.176;-0.708;2023-03-22T11:03:38;99679.65;;;10.72;91.62
55517;BME280;41724;51.176;-0.708;2023-03-22T11:06:08;99663.04;;;10.85;90.12
55517;BME280;41724;51.176;-0.708;2023-03-22T11:08:39;99664.52;;;11.39;89.24
55517;BME280;41724;51.176;-0.708;2023-03-22T11:11:15;99666.17;;;12.11;88.04
55517;BME280;41724;51.176;-0.708;2023-03-22T11:13:49;99673.43;;;11.95;85.26
55517;BME280;41724;51.176;-0.708;2023-03-22T11:16:17;99679.97;;;11.47;86.47
55517;BME280;41724;51.176;-0.708;2023-03-22T11:18:44;99668.80;;;11.64;87.64
55517;BME280;41724;51.176;-0.708;2023-03-22T11:21:14;99677.00;;;12.38;82.39
55517;BME280;41724;51.176;-0.708;2023-03-22T11:23:50;99672.24;;;12.23;82.67
55517;BME280;41724;51.176;-0.708;2023-03-22T11:26:28;99675.62;;;12.28;80.44
55517;BME280;41724;51.176;-0.708;2023-03-22T11:29:03;99669.18;;;12.68;80.93
55517;BME280;41724;51.176;-0.708;2023-03-22T11:31:55;99659.61;;;12.72;81.36
55517;BME280;41724;51.176;-0.708;2023-03-22T11:34:24;99671.60;;;12.90;81.77
55517;BME280;41724;51.176;-0.708;2023-03-22T11:36:52;99664.33;;;11.88;83.13
55517;BME280;41724;51.176;-0.708;2023-03-22T11:39:20;99662.28;;;11.80;84.95
55517;BME280;41724;51.176;-0.708;2023-03-22T11:41:47;99662.46;;;11.65;85.75
55517;BME280;41724;51.176;-0.708;2023-03-22T11:44:16;99650.57;;;11.98;84.42
55517;BME280;41724;51.176;-0.708;2023-03-22T11:46:51;99644.64;;;13.11;82.10
55517;BME280;41724;51.176;-0.708;2023-03-22T11:49:20;99637.71;;;13.63;78.74
55517;BME280;41724;51.176;-0.708;2023-03-22T11:51:51;99644.57;;;13.50;78.88
55517;BME280;41724;51.176;-0.708;2023-03-22T11:54:26;99665.90;;;13.66;75.89
55517;BME280;41724;51.176;-0.708;2023-03-22T11:56:57;99666.50;;;13.14;77.80
55517;BME280;41724;51.176;-0.708;2023-03-22T11:59:27;99653.42;;;12.67;79.56
55517;BME280;41724;51.176;-0.708;2023-03-22T12:01:59;99651.99;;;12.75;78.09
55517;BME280;41724;51.176;-0.708;2023-03-22T12:04:33;99653.91;;;12.67;78.25
55517;BME280;41724;51.176;-0.708;2023-03-22T12:07:08;99657.15;;;12.47;79.38
55517;BME280;41724;51.176;-0.708;2023-03-22T12:09:42;99649.28;;;12.47;79.79
55517;BME280;41724;51.176;-0.708;2023-03-22T12:12:13;99645.25;;;12.82;80.28
55517;BME280;41724;51.176;-0.708;2023-03-22T12:14:47;99642.18;;;13.07;77.12
55517;BME280;41724;51.176;-0.708;2023-03-22T12:17:24;99642.20;;;13.58;73.74
55517;BME280;41724;51.176;-0.708;2023-03-22T12:19:59;99647.99;;;13.29;74.48
55517;BME280;41724;51.176;-0.708;2023-03-22T12:22:31;99667.89;;;13.16;72.45
55517;BME280;41724;51.176;-0.708;2023-03-22T12:24:59;99663.03;;;12.13;79.61
55517;BME280;41724;51.176;-0.708;2023-03-22T12:27:29;99648.26;;;12.02;81.04
55517;BME280;41724;51.176;-0.708;2023-03-22T12:30:00;99651.98;;;12.90;78.57
55517;BME280;41724;51.176;-0.708;2023-03-22T12:32:32;99645.49;;;13.15;74.94
55517;BME280;41724;51.176;-0.708;2023-03-22T12:34:59;99648.89;;;12.82;75.54
55517;BME280;41724;51.176;-0.708;2023-03-22T12:37:29;99645.79;;;12.94;76.60
55517;BME280;41724;51.176;-0.708;2023-03-22T12:40:00;99650.06;;;13.30;74.99
55517;BME280;41724;51.176;-0.708;2023-03-22T12:42:35;99655.92;;;13.71;73.45
55517;BME280;41724;51.176;-0.708;2023-03-22T12:45:10;99644.34;;;13.34;73.30
55517;BME280;41724;51.176;-0.708;2023-03-22T12:47:42;99657.12;;;13.89;73.05
55517;BME280;41724;51.176;-0.708;2023-03-22T12:50:14;99648.79;;;12.43;74.62
55517;BME280;41724;51.176;-0.708;2023-03-22T12:52:45;99652.03;;;12.79;76.18
55517;BME280;41724;51.176;-0.708;2023-03-22T12:55:21;99651.89;;;13.62;72.58
55517;BME280;41724;51.176;-0.708;2023-03-22T12:57:49;99660.36;;;13.03;73.30
55517;BME280;41724;51.176;-0.708;2023-03-22T13:00:18;99665.21;;;13.42;74.29
55517;BME280;41724;51.176;-0.708;2023-03-22T13:02:50;99651.15;;;13.66;72.96
55517;BME280;41724;51.176;-0.708;2023-03-22T13:05:20;99655.72;;;13.39;71.39
55517;BME280;41724;51.176;-0.708;2023-03-22T13:07:54;99653.97;;;14.61;68.14